Aeroporto :
LOGIN :

Iscrizione | Disclaimer

   EN    FR    IT 

 










Sommario :    VFR   VFR Marginale   IFR   IFR Intensivo   IFR Molto Intensivo
Visibilità : 
Base nubi : 
>= 8 km
>= 3000ft
5 / 8 km
1000 / 3000 ft
1500m / 5 km
500 / 1000 ft
800 / 1500m
200 / 500 ft
< 800m
< 200 ft
Simboli :   Temporali  Nebbia  Neve Forte  Precipitazioni Forti  Vento > 20 kt
SIGMETs :   Varie  Temporali  Ghiacco  Turbolenza  Onda orograficha  Ceneri Vulcaniche






- Altitudine del aeroporto : 1260 ft
- Codice IATA : LDE


LFBT - Tarbes / Ossun

ULTIMO METAR :
  • 191500Z AUTO 01010KT CAVOK 06/M01 Q1031 NOSIG

METARs OBSOLETI :
  • 191430Z AUTO 02009KT 9999 FEW037 07/M01 Q1031 NOSIG
  • 191400Z AUTO 02008KT 350V060 9999 FEW033 07/M00 Q1031 NOSIG
  • 191330Z AUTO 02006KT 350V050 9999 FEW030 SCT035 07/M00 Q1031 NOSIG
  • 191300Z AUTO 02004KT 9999 BKN030 06/M00 Q1031 NOSIG
  • 191230Z AUTO 01007KT 9999 BKN027 06/01 Q1031 NOSIG

TAF TAF LFBT
Valido dal 19 a 12 ore il 20 a 12 ore UTC


191100Z 1912/2012 33006KT 9999 SCT015 SCT050
BECMG 1913/1915 BKN020
BECMG 1916/1918 VRB02KT
TEMPO 2003/2008 4000 BR OVC003
BECMG 2008/2010 9999 NSW OVC005
BECMG 2010/2012 SCT010



MetMap, La meteo Aeronautica in un colpo d'occhio ! - Copyright ORBIFLY Dicembre 2007 - Disclaimer

ORBIFLY MET'MAP TEAM :

Programmazione e sviluppo : Alexandra Zaïnal
Concezione : Baudouin d'Aumeries
Aiuto per la programmazione : Marc-Olivier Méhu
Supporto tecnico e logistico : Manuel Goepfert
Aiuto per la traduzione : Arnaldo La Scala

Contatto : metmap@orbifly.com




FONTI E CREDITI :

   NOAA